Time;durP1;ratioP1;P1;durP2;ratioP2;P2;SDS_P1;SDS_P2;PMS_P1;PMS_P2;Temp;Humidity;BMP_temperature;BMP_pressure;BME280_temperature;BME280_humidity;BME280_pressure;Samples;Min_cycle;Max_cycle;Signal;HPM_P1;HPM_P2
2024/02/23 00:00:11;;;;;;;1.38;1.00;;;12.10;99.90;;;;;;6178129;23;20011;-64
2024/02/23 00:02:57;;;;;;;1.58;1.08;;;12.10;99.90;;;;;;6182751;23;20303;-64
2024/02/23 00:05:43;;;;;;;1.65;1.10;;;12.00;99.90;;;;;;6180822;23;20063;-63
2024/02/23 00:08:29;;;;;;;2.13;1.20;;;12.00;99.90;;;;;;6181216;23;20290;-64
2024/02/23 00:11:15;;;;;;;2.03;1.00;;;12.00;99.90;;;;;;6182341;23;19997;-64
2024/02/23 00:14:02;;;;;;;2.42;1.20;;;12.00;99.90;;;;;;6180265;23;20378;-64
2024/02/23 00:16:48;;;;;;;1.77;1.00;;;12.00;99.90;;;;;;6179449;23;20005;-64
2024/02/23 00:19:34;;;;;;;1.10;0.98;;;12.00;99.90;;;;;;6180737;23;20036;-64
2024/02/23 00:22:20;;;;;;;2.13;1.00;;;12.00;99.90;;;;;;6181297;23;20068;-64
2024/02/23 00:25:06;;;;;;;1.17;1.05;;;12.00;99.90;;;;;;6181558;23;20386;-64
2024/02/23 00:27:52;;;;;;;1.55;0.95;;;12.00;99.90;;;;;;6181827;23;20326;-64
2024/02/23 00:30:38;;;;;;;1.92;1.10;;;12.00;99.90;;;;;;6182467;23;20342;-64
2024/02/23 00:33:24;;;;;;;1.83;1.23;;;12.00;99.90;;;;;;6181292;23;20434;-65
2024/02/23 00:36:10;;;;;;;2.15;1.60;;;12.10;99.90;;;;;;6181976;23;20037;-64
2024/02/23 00:38:56;;;;;;;1.02;0.90;;;12.00;99.90;;;;;;6180274;23;20008;-64
2024/02/23 00:41:42;;;;;;;1.80;1.30;;;12.10;99.90;;;;;;6180214;23;20100;-64
2024/02/23 00:44:28;;;;;;;1.70;1.10;;;12.10;99.90;;;;;;6181452;23;20017;-64
2024/02/23 00:47:14;;;;;;;2.90;1.38;;;12.10;99.90;;;;;;6180272;23;20015;-63
2024/02/23 00:50:01;;;;;;;2.60;1.02;;;12.10;99.90;;;;;;6181463;23;20449;-64
2024/02/23 00:52:47;;;;;;;1.40;1.17;;;12.00;99.90;;;;;;6179575;23;20016;-65
2024/02/23 00:55:33;;;;;;;0.98;0.88;;;12.00;99.90;;;;;;6181073;23;20006;-65
2024/02/23 00:58:19;;;;;;;2.13;1.17;;;12.00;99.90;;;;;;6183817;23;20001;-65
2024/02/23 01:01:05;;;;;;;2.92;1.00;;;12.00;99.90;;;;;;6182145;23;20110;-64
2024/02/23 01:03:51;;;;;;;1.27;1.00;;;12.10;99.90;;;;;;6183839;23;20013;-65
2024/02/23 01:06:37;;;;;;;1.10;0.98;;;12.00;99.90;;;;;;6183190;23;20436;-64
2024/02/23 01:09:23;;;;;;;2.90;1.10;;;12.00;99.90;;;;;;6183105;23;20012;-64
2024/02/23 01:12:09;;;;;;;2.42;1.52;;;12.00;99.90;;;;;;6181613;23;20060;-64
2024/02/23 01:14:54;;;;;;;1.52;1.15;;;12.00;99.90;;;;;;6181131;23;20005;-65
2024/02/23 01:17:40;;;;;;;2.08;1.27;;;12.10;99.90;;;;;;6182205;23;20421;-65
2024/02/23 01:20:26;;;;;;;1.70;1.10;;;12.10;99.90;;;;;;6181350;23;20422;-64
2024/02/23 01:23:12;;;;;;;1.55;1.20;;;12.10;99.90;;;;;;6182725;23;20104;-65
2024/02/23 01:26:00;;;;;;;1.70;1.25;;;12.10;99.90;;;;;;6182580;23;20005;-65
2024/02/23 01:28:45;;;;;;;1.60;1.20;;;12.10;99.90;;;;;;6183518;23;20003;-64
2024/02/23 01:31:31;;;;;;;2.67;1.48;;;12.20;99.90;;;;;;6181336;23;20009;-65
2024/02/23 01:34:17;;;;;;;1.95;1.63;;;12.20;99.90;;;;;;6181054;23;20020;-65
2024/02/23 01:37:04;;;;;;;2.50;1.25;;;12.20;99.90;;;;;;6182946;23;20371;-65
2024/02/23 01:39:49;;;;;;;2.10;0.98;;;12.20;99.90;;;;;;6180709;23;20067;-65
2024/02/23 01:42:35;;;;;;;1.52;1.15;;;12.20;99.90;;;;;;6181008;23;20396;-65
2024/02/23 01:45:21;;;;;;;1.42;1.10;;;12.20;99.90;;;;;;6183002;23;20024;-64
2024/02/23 01:48:07;;;;;;;1.35;1.10;;;12.30;99.90;;;;;;6182133;23;20005;-64
2024/02/23 01:50:54;;;;;;;1.52;0.98;;;12.30;99.90;;;;;;6180941;23;20460;-65
2024/02/23 01:53:40;;;;;;;1.42;1.15;;;12.30;99.90;;;;;;6181697;23;20013;-64
2024/02/23 01:56:27;;;;;;;1.48;1.10;;;12.40;99.90;;;;;;6179708;23;20063;-64
2024/02/23 01:59:13;;;;;;;2.05;1.20;;;12.40;99.90;;;;;;6180713;23;20088;-65
2024/02/23 02:01:59;;;;;;;1.83;1.05;;;12.40;99.90;;;;;;6182620;23;20504;-65
2024/02/23 02:04:45;;;;;;;1.85;1.23;;;12.50;99.90;;;;;;6180873;23;20012;-65
2024/02/23 02:07:31;;;;;;;1.35;1.25;;;12.50;99.90;;;;;;6180756;23;20009;-65
2024/02/23 02:10:17;;;;;;;1.42;1.17;;;12.50;99.90;;;;;;6181941;23;20304;-65
2024/02/23 02:13:05;;;;;;;1.73;1.20;;;12.60;99.90;;;;;;6182183;23;20036;-65
2024/02/23 02:15:51;;;;;;;2.03;1.17;;;12.60;99.90;;;;;;6181721;23;20033;-64
2024/02/23 02:18:37;;;;;;;0.80;0.80;;;12.60;99.90;;;;;;6183084;23;20009;-65
2024/02/23 02:21:25;;;;;;;0.98;0.88;;;12.60;99.90;;;;;;6182193;23;20496;-63
2024/02/23 02:24:10;;;;;;;2.28;1.10;;;12.60;99.90;;;;;;6183201;23;20035;-64
2024/02/23 02:26:56;;;;;;;1.20;0.68;;;12.60;99.90;;;;;;6181006;23;20323;-65
2024/02/23 02:29:43;;;;;;;2.92;0.95;;;12.60;99.90;;;;;;6182429;23;20353;-65
2024/02/23 02:32:28;;;;;;;0.63;0.60;;;12.60;99.90;;;;;;6180482;23;20064;-65
2024/02/23 02:35:15;;;;;;;0.52;0.52;;;12.50;99.90;;;;;;6183157;23;20001;-63
2024/02/23 02:38:01;;;;;;;2.60;0.80;;;12.50;99.90;;;;;;6180507;23;20371;-63
2024/02/23 02:40:47;;;;;;;1.95;0.68;;;12.50;99.90;;;;;;6182061;23;20044;-63
2024/02/23 02:43:33;;;;;;;1.55;0.90;;;12.40;99.90;;;;;;6181688;23;20017;-64
2024/02/23 02:46:19;;;;;;;0.63;0.63;;;12.40;99.80;;;;;;6180184;23;20009;-63
2024/02/23 02:49:05;;;;;;;1.20;1.10;;;12.30;98.80;;;;;;6182319;23;20016;-63
2024/02/23 02:51:51;;;;;;;1.35;0.70;;;12.30;99.00;;;;;;6181188;23;20001;-63
2024/02/23 02:54:37;;;;;;;2.17;0.75;;;12.30;99.10;;;;;;6180242;23;20005;-63
2024/02/23 02:57:23;;;;;;;0.93;0.43;;;12.30;98.90;;;;;;6178328;23;20215;-63
2024/02/23 03:00:10;;;;;;;1.20;0.70;;;12.30;98.80;;;;;;6182165;23;20009;-63
2024/02/23 03:02:56;;;;;;;1.02;0.50;;;12.20;98.50;;;;;;6182121;23;20426;-63
2024/02/23 03:05:42;;;;;;;1.65;1.00;;;12.20;98.30;;;;;;6180700;23;20358;-62
2024/02/23 03:08:29;;;;;;;1.10;0.60;;;12.20;98.10;;;;;;6180878;23;20012;-62
2024/02/23 03:11:15;;;;;;;2.88;0.63;;;12.10;97.90;;;;;;6180880;23;20087;-62
2024/02/23 03:14:01;;;;;;;1.58;0.65;;;12.10;97.80;;;;;;6180798;23;20181;-63
2024/02/23 03:16:49;;;;;;;1.95;0.85;;;12.10;97.60;;;;;;6180649;23;20290;-63
2024/02/23 03:19:35;;;;;;;1.75;0.60;;;12.10;97.60;;;;;;6180293;23;20005;-63
2024/02/23 03:22:21;;;;;;;2.05;0.73;;;12.00;97.30;;;;;;6180939;23;20096;-63
2024/02/23 03:25:08;;;;;;;1.38;0.82;;;12.00;97.20;;;;;;6181705;23;20023;-64
2024/02/23 03:27:54;;;;;;;0.50;0.47;;;12.00;97.00;;;;;;6180287;23;20032;-63
2024/02/23 03:30:39;;;;;;;2.63;1.27;;;12.00;96.90;;;;;;6179972;23;19997;-62
2024/02/23 03:33:26;;;;;;;3.40;0.63;;;11.90;96.80;;;;;;6182003;23;20080;-62
2024/02/23 03:36:12;;;;;;;2.78;0.70;;;11.90;96.70;;;;;;6182289;23;20008;-63
2024/02/23 03:38:57;;;;;;;1.67;0.45;;;11.90;96.60;;;;;;6180166;23;20009;-62
2024/02/23 03:41:43;;;;;;;1.10;0.75;;;11.90;96.40;;;;;;6179343;23;20005;-63
2024/02/23 03:44:31;;;;;;;0.55;0.50;;;11.90;96.30;;;;;;6180963;23;20468;-63
2024/02/23 03:47:17;;;;;;;1.48;0.60;;;11.90;96.20;;;;;;6181673;23;20005;-63
2024/02/23 03:50:03;;;;;;;1.67;1.05;;;11.80;96.00;;;;;;6181111;23;20307;-62
2024/02/23 03:52:49;;;;;;;1.30;0.50;;;11.80;95.80;;;;;;6173672;23;20064;-63
2024/02/23 03:55:35;;;;;;;0.73;0.52;;;11.80;95.80;;;;;;6180113;23;20013;-62
2024/02/23 03:58:20;;;;;;;0.52;0.50;;;11.80;95.70;;;;;;6182117;23;20011;-63
2024/02/23 04:01:06;;;;;;;1.02;0.70;;;11.70;95.60;;;;;;6181942;23;20009;-65
2024/02/23 04:03:52;;;;;;;1.35;0.80;;;11.70;95.60;;;;;;6181318;23;20040;-64
2024/02/23 04:06:38;;;;;;;6.20;1.25;;;11.70;95.50;;;;;;6180499;23;20024;-64
2024/02/23 04:09:24;;;;;;;1.83;0.73;;;11.70;95.40;;;;;;6181861;23;20005;-64
2024/02/23 04:12:10;;;;;;;1.65;0.90;;;11.70;95.40;;;;;;6183316;23;20005;-64
2024/02/23 04:14:56;;;;;;;1.45;0.90;;;11.70;95.50;;;;;;6180974;23;20009;-64
2024/02/23 04:17:42;;;;;;;3.05;0.82;;;11.60;95.40;;;;;;6180843;23;20011;-64
2024/02/23 04:20:28;;;;;;;1.65;0.80;;;11.70;95.40;;;;;;6183434;23;20008;-64
2024/02/23 04:23:14;;;;;;;0.73;0.57;;;11.60;95.30;;;;;;6182114;23;20021;-64
2024/02/23 04:26:00;;;;;;;0.75;0.70;;;11.60;95.20;;;;;;6182491;23;20008;-64
2024/02/23 04:28:46;;;;;;;2.03;1.05;;;11.60;95.20;;;;;;6182199;23;20016;-64
2024/02/23 04:31:32;;;;;;;2.33;0.57;;;11.60;95.10;;;;;;6183333;23;20014;-63
2024/02/23 04:34:18;;;;;;;1.65;0.75;;;11.50;95.10;;;;;;6184044;23;20001;-63
2024/02/23 04:37:04;;;;;;;1.55;0.73;;;11.50;95.10;;;;;;6183850;23;20342;-63
2024/02/23 04:39:50;;;;;;;2.03;0.90;;;11.50;95.10;;;;;;6181730;23;20001;-63
2024/02/23 04:42:35;;;;;;;0.95;0.63;;;11.50;95.00;;;;;;6182189;23;20051;-63
2024/02/23 04:45:21;;;;;;;0.55;0.50;;;11.40;94.90;;;;;;6182571;23;20021;-63
2024/02/23 04:48:07;;;;;;;0.68;0.52;;;11.40;94.80;;;;;;6184434;23;20091;-63
2024/02/23 04:50:53;;;;;;;2.22;0.60;;;11.30;94.70;;;;;;6183120;23;20021;-63
2024/02/23 04:53:39;;;;;;;0.88;0.50;;;11.30;94.70;;;;;;6184060;23;20040;-63
2024/02/23 04:56:25;;;;;;;0.65;0.40;;;11.30;94.70;;;;;;6181549;23;20037;-63
2024/02/23 04:59:11;;;;;;;1.40;0.40;;;11.30;94.60;;;;;;6182467;23;20008;-63
2024/02/23 05:01:57;;;;;;;2.17;0.47;;;11.30;94.60;;;;;;6182211;23;20005;-63
2024/02/23 05:04:43;;;;;;;1.15;0.50;;;11.30;94.50;;;;;;6183770;23;20036;-64
2024/02/23 05:07:31;;;;;;;0.32;0.32;;;11.30;94.40;;;;;;6181707;23;20028;-63
2024/02/23 05:10:17;;;;;;;0.85;0.47;;;11.20;94.30;;;;;;6184551;23;20041;-63
2024/02/23 05:13:03;;;;;;;1.02;0.80;;;11.20;94.30;;;;;;6181869;23;20028;-63
2024/02/23 05:15:55;;;;;;;0.98;0.52;;;11.20;94.20;;;;;;6184154;23;20009;-63
2024/02/23 05:18:41;;;;;;;1.35;0.60;;;11.20;94.20;;;;;;6183537;23;20033;-63
2024/02/23 05:21:27;;;;;;;1.25;0.70;;;11.30;94.10;;;;;;6181212;23;20446;-63
2024/02/23 05:24:13;;;;;;;1.63;0.65;;;11.20;94.00;;;;;;6183490;23;20051;-63
2024/02/23 05:27:02;;;;;;;1.05;0.68;;;11.20;94.00;;;;;;6183278;23;20016;-63
2024/02/23 05:29:48;;;;;;;2.22;0.70;;;11.20;93.80;;;;;;6183383;23;20016;-63
2024/02/23 05:32:34;;;;;;;1.17;0.50;;;11.20;93.90;;;;;;6180781;23;20331;-63
2024/02/23 05:35:20;;;;;;;0.85;0.60;;;11.20;93.80;;;;;;6182079;23;20133;-64
2024/02/23 05:38:06;;;;;;;0.85;0.45;;;11.20;93.70;;;;;;6181523;23;20039;-63
2024/02/23 05:40:52;;;;;;;0.75;0.40;;;11.10;93.60;;;;;;6180103;23;20065;-63
2024/02/23 05:43:38;;;;;;;0.93;0.60;;;11.10;93.40;;;;;;6181352;23;20017;-63
2024/02/23 05:46:24;;;;;;;0.55;0.40;;;11.00;93.20;;;;;;6184049;23;20463;-70
2024/02/23 05:49:10;;;;;;;2.33;0.52;;;10.90;93.10;;;;;;6183906;23;20013;-71
2024/02/23 05:51:56;;;;;;;0.32;0.28;;;10.90;93.20;;;;;;6183363;23;20088;-70
2024/02/23 05:54:42;;;;;;;0.40;0.40;;;10.80;93.00;;;;;;6181018;23;20009;-69
2024/02/23 05:57:27;;;;;;;0.52;0.47;;;10.70;92.90;;;;;;6181078;23;20005;-69
2024/02/23 06:00:15;;;;;;;1.05;0.63;;;10.70;93.00;;;;;;6182848;23;20020;-70
2024/02/23 06:03:01;;;;;;;2.10;0.77;;;10.60;92.90;;;;;;6183605;23;20103;-70
2024/02/23 06:05:47;;;;;;;1.20;0.60;;;10.50;92.80;;;;;;6182582;23;20004;-70
2024/02/23 06:08:33;;;;;;;0.93;0.40;;;10.50;92.80;;;;;;6183304;23;20012;-71
2024/02/23 06:11:19;;;;;;;0.65;0.63;;;10.40;92.70;;;;;;6180117;23;20009;-71
2024/02/23 06:14:05;;;;;;;0.70;0.50;;;10.40;92.80;;;;;;6182694;23;20369;-70
2024/02/23 06:16:51;;;;;;;1.05;0.50;;;10.40;92.70;;;;;;6182441;23;20001;-69
2024/02/23 06:19:37;;;;;;;0.68;0.50;;;10.40;92.70;;;;;;6184231;23;20434;-70
2024/02/23 06:22:23;;;;;;;0.60;0.60;;;10.30;92.70;;;;;;6182124;23;20366;-69
2024/02/23 06:25:10;;;;;;;0.68;0.60;;;10.40;92.70;;;;;;6181548;23;20092;-70
2024/02/23 06:27:56;;;;;;;0.70;0.68;;;10.30;92.60;;;;;;6183847;23;20496;-71
2024/02/23 06:30:42;;;;;;;0.55;0.55;;;10.30;92.70;;;;;;6182176;23;20318;-71
2024/02/23 06:33:29;;;;;;;0.68;0.68;;;10.30;92.70;;;;;;6180261;23;20013;-71
2024/02/23 06:36:15;;;;;;;0.73;0.57;;;10.30;92.60;;;;;;6183983;23;20145;-71
2024/02/23 06:39:02;;;;;;;0.90;0.82;;;10.30;92.60;;;;;;6182669;23;20009;-72
2024/02/23 06:41:48;;;;;;;1.83;0.63;;;10.20;92.60;;;;;;6182134;23;20005;-71
2024/02/23 06:44:34;;;;;;;1.05;0.95;;;10.20;92.60;;;;;;6189538;23;20032;-69
2024/02/23 06:47:20;;;;;;;1.00;0.70;;;10.20;92.60;;;;;;6186088;23;20009;-70
2024/02/23 06:50:07;;;;;;;0.65;0.55;;;10.20;92.60;;;;;;6181151;23;20009;-71
2024/02/23 06:52:54;;;;;;;1.65;0.82;;;10.20;92.50;;;;;;6180329;23;20437;-71
2024/02/23 06:55:40;;;;;;;1.05;0.65;;;10.20;92.60;;;;;;6180971;23;20016;-70
2024/02/23 06:58:26;;;;;;;0.60;0.60;;;10.20;92.60;;;;;;6182461;23;20005;-70
2024/02/23 07:01:12;;;;;;;2.85;0.90;;;10.20;92.50;;;;;;6181419;23;20349;-70
2024/02/23 07:03:58;;;;;;;2.45;0.80;;;10.20;92.50;;;;;;6182703;23;20016;-70
2024/02/23 07:06:44;;;;;;;1.83;0.88;;;10.20;92.50;;;;;;6182314;23;20005;-71
2024/02/23 07:09:30;;;;;;;1.10;0.60;;;10.30;92.50;;;;;;6182832;23;20083;-71
2024/02/23 07:12:16;;;;;;;2.78;0.85;;;10.30;92.50;;;;;;6180567;23;20413;-70
2024/02/23 07:15:02;;;;;;;0.95;0.77;;;10.20;92.40;;;;;;6182339;23;20525;-71
2024/02/23 07:17:48;;;;;;;0.90;0.70;;;10.20;92.50;;;;;;6178108;23;20006;-70
2024/02/23 07:20:38;;;;;;;3.35;0.90;;;10.20;92.50;;;;;;6180692;23;20084;-71
2024/02/23 07:23:24;;;;;;;1.67;1.17;;;10.30;92.50;;;;;;6178705;23;20357;-68
2024/02/23 07:26:10;;;;;;;1.95;0.77;;;10.30;92.80;;;;;;6182109;23;20518;-70
2024/02/23 07:28:56;;;;;;;0.75;0.60;;;10.40;92.60;;;;;;6181756;23;20016;-68
2024/02/23 07:31:41;;;;;;;4.03;0.80;;;10.40;92.60;;;;;;6181832;23;20096;-68
2024/02/23 07:34:27;;;;;;;1.30;0.98;;;10.40;92.60;;;;;;6179621;23;20005;-68
2024/02/23 07:37:14;;;;;;;3.20;0.80;;;10.40;92.60;;;;;;6179206;23;20009;-68
2024/02/23 07:39:59;;;;;;;1.00;0.80;;;10.50;92.60;;;;;;6180650;23;20009;-69
2024/02/23 07:42:45;;;;;;;1.63;0.93;;;10.50;92.60;;;;;;6181834;23;20023;-69
2024/02/23 07:45:33;;;;;;;0.75;0.70;;;10.60;92.60;;;;;;6181233;23;20021;-69
2024/02/23 07:48:19;;;;;;;4.65;0.80;;;10.60;92.60;;;;;;6181662;23;20004;-69
2024/02/23 07:51:05;;;;;;;0.75;0.65;;;10.60;92.50;;;;;;6181852;23;20001;-69
2024/02/23 07:53:51;;;;;;;2.90;1.35;;;10.70;92.60;;;;;;6182355;23;20466;-70
2024/02/23 07:56:37;;;;;;;0.52;0.52;;;10.70;92.50;;;;;;6182038;23;20361;-70
2024/02/23 07:59:23;;;;;;;2.83;0.60;;;10.80;92.50;;;;;;6180467;23;20438;-68
2024/02/23 08:02:09;;;;;;;2.17;1.10;;;10.80;92.50;;;;;;6181191;23;20009;-68
2024/02/23 08:04:55;;;;;;;1.25;0.60;;;10.80;92.50;;;;;;6182038;23;20043;-69
2024/02/23 08:07:41;;;;;;;0.75;0.70;;;10.80;92.50;;;;;;6184378;23;20001;-69
2024/02/23 08:10:27;;;;;;;2.08;0.82;;;10.90;92.50;;;;;;6182975;23;20007;-69
2024/02/23 08:13:13;;;;;;;1.38;0.88;;;10.90;92.60;;;;;;6182690;23;20025;-69
2024/02/23 08:15:59;;;;;;;0.82;0.80;;;10.90;92.60;;;;;;6183370;23;20354;-67
2024/02/23 08:18:44;;;;;;;1.50;0.77;;;10.90;92.60;;;;;;6184514;23;20345;-67
2024/02/23 08:21:30;;;;;;;1.80;1.10;;;11.10;92.70;;;;;;6184084;23;20005;-69
2024/02/23 08:24:17;;;;;;;1.00;0.90;;;11.00;92.70;;;;;;6184049;23;20016;-68
2024/02/23 08:27:03;;;;;;;3.75;1.10;;;11.10;92.60;;;;;;6184171;23;20345;-67
2024/02/23 08:29:49;;;;;;;0.85;0.80;;;11.10;92.70;;;;;;6184350;23;20019;-69
2024/02/23 08:32:36;;;;;;;1.38;1.08;;;11.10;92.50;;;;;;6182603;23;20005;-69
2024/02/23 08:35:22;;;;;;;3.58;1.38;;;11.10;92.50;;;;;;6183591;23;20063;-69
2024/02/23 08:38:08;;;;;;;2.40;1.20;;;11.10;92.50;;;;;;6182764;23;20024;-68
2024/02/23 08:40:54;;;;;;;1.92;1.20;;;11.10;92.50;;;;;;6181748;23;20112;-68
2024/02/23 08:43:40;;;;;;;1.10;0.82;;;11.10;92.40;;;;;;6182734;23;20044;-68
2024/02/23 08:46:26;;;;;;;1.63;0.82;;;11.10;92.40;;;;;;6184267;23;20327;-68
2024/02/23 08:49:12;;;;;;;1.33;0.82;;;11.10;92.30;;;;;;6182637;23;20365;-60
2024/02/23 08:51:58;;;;;;;1.40;0.77;;;11.10;92.20;;;;;;6183677;23;20005;-60
2024/02/23 08:54:44;;;;;;;1.85;0.90;;;11.20;92.20;;;;;;6181652;23;20016;-60
2024/02/23 08:57:30;;;;;;;1.23;0.80;;;11.20;92.00;;;;;;6183089;23;20373;-60
2024/02/23 09:00:16;;;;;;;1.90;1.00;;;11.20;92.00;;;;;;6180511;23;20641;-59
2024/02/23 09:03:03;;;;;;;3.03;0.95;;;11.20;91.90;;;;;;6183031;23;20017;-61
2024/02/23 09:05:50;;;;;;;0.95;0.73;;;11.20;91.80;;;;;;6181318;23;20039;-59
2024/02/23 09:08:36;;;;;;;1.35;1.00;;;11.30;91.80;;;;;;6183081;23;20480;-60
2024/02/23 09:11:22;;;;;;;2.92;1.10;;;11.20;91.80;;;;;;6178295;23;20488;-60
2024/02/23 09:14:08;;;;;;;1.58;0.70;;;11.20;91.70;;;;;;6182383;23;20361;-60
2024/02/23 09:16:54;;;;;;;2.20;1.00;;;11.20;91.60;;;;;;6180186;23;20503;-60
2024/02/23 09:19:40;;;;;;;2.08;1.10;;;11.30;91.60;;;;;;6181263;23;20037;-60
2024/02/23 09:22:26;;;;;;;2.60;1.10;;;11.30;91.60;;;;;;6179466;23;20327;-59
2024/02/23 09:25:12;;;;;;;2.40;1.10;;;11.30;91.70;;;;;;6183592;23;19997;-59
2024/02/23 09:27:58;;;;;;;1.83;0.70;;;11.40;91.50;;;;;;6181824;23;20008;-60
2024/02/23 09:30:44;;;;;;;1.77;0.90;;;11.40;91.40;;;;;;6183829;23;20009;-59
2024/02/23 09:33:30;;;;;;;1.30;0.73;;;11.50;91.40;;;;;;6183576;23;20005;-60
2024/02/23 09:36:17;;;;;;;1.45;0.85;;;11.50;91.40;;;;;;6182892;23;20055;-59
2024/02/23 09:39:04;;;;;;;0.70;0.70;;;11.60;91.40;;;;;;6183771;23;20001;-60
2024/02/23 09:41:50;;;;;;;1.08;0.77;;;11.60;91.30;;;;;;6182145;23;20005;-59
2024/02/23 09:44:37;;;;;;;2.50;1.00;;;11.60;91.10;;;;;;6179387;23;20032;-60
2024/02/23 09:47:24;;;;;;;0.80;0.80;;;11.60;91.00;;;;;;6183931;23;20084;-60
2024/02/23 09:50:11;;;;;;;0.60;0.60;;;11.70;91.10;;;;;;6183936;23;20001;-59
2024/02/23 09:52:58;;;;;;;1.95;1.00;;;11.70;91.00;;;;;;6179427;23;20334;-60
2024/02/23 09:55:45;;;;;;;1.73;0.85;;;11.80;90.80;;;;;;6180912;23;20060;-59
2024/02/23 09:58:32;;;;;;;3.38;1.05;;;11.80;90.70;;;;;;6181282;23;20029;-59
2024/02/23 10:01:36;;;;;;;1.73;0.77;;;11.80;90.60;;;;;;6183272;23;20016;-59
2024/02/23 10:04:24;;;;;;;1.67;0.70;;;11.80;90.30;;;;;;6181251;23;20044;-59
2024/02/23 10:07:10;;;;;;;0.57;0.57;;;11.80;90.50;;;;;;6182729;23;20080;-60
2024/02/23 10:09:56;;;;;;;3.92;0.88;;;11.80;90.30;;;;;;6179364;23;20009;-61
2024/02/23 10:12:42;;;;;;;2.72;1.50;;;11.80;90.30;;;;;;6178112;23;20017;-60
2024/02/23 10:15:31;;;;;;;1.90;0.55;;;11.80;90.40;;;;;;6182677;23;20012;-59
2024/02/23 10:18:17;;;;;;;3.17;1.05;;;11.80;90.40;;;;;;6182929;23;20090;-61
2024/02/23 10:21:05;;;;;;;1.35;1.15;;;11.90;90.50;;;;;;6177881;23;20009;-60
2024/02/23 10:23:51;;;;;;;1.55;0.90;;;11.90;90.40;;;;;;6179622;23;20448;-60
2024/02/23 10:26:37;;;;;;;1.05;0.80;;;12.00;90.60;;;;;;6180127;23;20012;-59
2024/02/23 10:29:23;;;;;;;2.40;1.20;;;12.00;90.60;;;;;;6181986;23;20117;-61
2024/02/23 10:32:15;;;;;;;1.40;1.00;;;12.10;90.50;;;;;;6180482;23;20013;-59
2024/02/23 10:35:04;;;;;;;2.58;1.25;;;12.10;90.50;;;;;;6182133;23;20110;-59
2024/02/23 10:37:51;;;;;;;1.42;0.93;;;12.20;90.60;;;;;;6182057;23;20009;-60
2024/02/23 10:40:42;;;;;;;1.23;1.00;;;12.30;90.50;;;;;;6180419;23;20028;-59
2024/02/23 10:43:46;;;;;;;1.98;1.02;;;12.40;90.40;;;;;;6179599;23;20021;-60
2024/02/23 10:46:33;;;;;;;2.80;2.05;;;12.50;90.30;;;;;;6180064;23;20025;-59
2024/02/23 10:49:20;;;;;;;2.92;1.42;;;12.50;90.00;;;;;;6182011;23;20005;-61
2024/02/23 10:52:09;;;;;;;0.88;0.80;;;12.50;89.40;;;;;;6180783;23;20001;-61
2024/02/23 10:54:56;;;;;;;1.83;1.00;;;12.60;88.80;;;;;;6180720;23;20017;-60
2024/02/23 10:57:44;;;;;;;2.28;0.90;;;12.60;88.50;;;;;;6180946;23;19997;-61
2024/02/23 11:00:30;;;;;;;1.75;0.70;;;12.60;88.20;;;;;;6182097;23;20012;-60
2024/02/23 11:03:18;;;;;;;2.55;0.85;;;12.70;87.90;;;;;;6178966;23;20017;-59
2024/02/23 11:06:07;;;;;;;2.95;0.65;;;12.70;87.60;;;;;;6183265;23;20434;-61
2024/02/23 11:08:53;;;;;;;0.95;0.77;;;12.70;87.20;;;;;;6183788;23;20125;-60
2024/02/23 11:11:39;;;;;;;6.78;1.10;;;12.70;87.20;;;;;;6181710;23;20001;-60
2024/02/23 11:14:38;;;;;;;0.73;0.73;;;12.70;87.40;;;;;;6178059;23;20016;-59
2024/02/23 11:17:27;;;;;;;1.60;0.80;;;12.80;87.20;;;;;;6181311;23;20043;-60
2024/02/23 11:20:14;;;;;;;2.17;1.17;;;12.80;87.10;;;;;;6181744;23;19997;-61
2024/02/23 11:23:00;;;;;;;1.33;1.00;;;12.80;86.90;;;;;;6181201;23;20349;-60
2024/02/23 11:26:26;;;;;;;3.65;1.45;;;12.80;86.60;;;;;;6180710;23;20409;-61
2024/02/23 11:29:14;;;;;;;1.73;0.80;;;12.80;86.00;;;;;;6180745;23;20067;-60
2024/02/23 11:32:03;;;;;;;2.80;1.10;;;12.80;85.90;;;;;;6182385;23;20059;-60
2024/02/23 11:34:56;;;;;;;1.20;0.70;;;12.80;85.60;;;;;;6181531;23;20009;-60
2024/02/23 11:38:00;;;;;;;2.30;1.23;;;12.90;85.20;;;;;;6181605;23;20009;-60
2024/02/23 11:40:48;;;;;;;3.60;1.58;;;12.80;85.10;;;;;;6181651;23;20465;-61
2024/02/23 11:43:35;;;;;;;2.53;0.90;;;12.90;85.10;;;;;;6181213;23;20520;-60
2024/02/23 11:46:22;;;;;;;3.85;1.00;;;12.90;85.00;;;;;;6176813;23;20009;-60
2024/02/23 11:49:07;;;;;;;2.25;1.25;;;12.90;84.80;;;;;;6179104;23;20009;-61
2024/02/23 11:51:54;;;;;;;3.60;1.13;;;12.90;84.50;;;;;;6180673;23;20059;-61
2024/02/23 11:54:40;;;;;;;1.55;0.90;;;12.90;84.50;;;;;;6177957;23;20043;-60
2024/02/23 11:57:26;;;;;;;2.25;1.23;;;12.90;84.50;;;;;;6180752;23;20016;-61
2024/02/23 12:00:13;;;;;;;1.45;0.80;;;12.90;84.20;;;;;;6180027;23;20008;-60
2024/02/23 12:02:59;;;;;;;3.83;1.00;;;13.00;84.10;;;;;;6179002;23;20017;-60
2024/02/23 12:05:45;;;;;;;4.28;1.45;;;13.00;83.80;;;;;;6179498;23;20009;-60
2024/02/23 12:08:37;;;;;;;2.58;1.23;;;12.90;83.70;;;;;;6181573;23;20009;-60
2024/02/23 12:11:23;;;;;;;1.45;0.82;;;13.00;83.90;;;;;;6180839;23;20460;-61
2024/02/23 12:14:10;;;;;;;1.38;0.73;;;13.00;83.70;;;;;;6178483;23;20013;-60
2024/02/23 12:16:57;;;;;;;2.22;1.48;;;13.00;83.40;;;;;;6180276;23;20077;-60
2024/02/23 12:19:43;;;;;;;2.55;1.30;;;13.00;83.40;;;;;;6181066;23;20017;-60
2024/02/23 12:22:29;;;;;;;3.85;1.20;;;13.00;83.10;;;;;;6181374;23;20024;-60
2024/02/23 12:25:15;;;;;;;1.65;0.95;;;13.10;83.40;;;;;;6181584;23;20011;-61
2024/02/23 12:28:01;;;;;;;2.53;1.40;;;13.10;83.30;;;;;;6177891;23;20346;-61
2024/02/23 12:31:00;;;;;;;1.55;1.05;;;13.10;83.30;;;;;;6179744;23;20011;-60
2024/02/23 12:33:48;;;;;;;1.65;1.00;;;13.10;83.10;;;;;;6179994;23;20429;-61
2024/02/23 12:36:36;;;;;;;4.13;1.55;;;13.10;83.10;;;;;;6179096;23;20531;-61
2024/02/23 12:39:22;;;;;;;3.15;1.42;;;13.10;82.90;;;;;;6182730;23;20019;-62
2024/02/23 12:42:08;;;;;;;1.90;1.00;;;13.10;83.10;;;;;;6183393;23;20005;-60
2024/02/23 12:44:54;;;;;;;1.55;0.90;;;13.10;82.90;;;;;;6179111;23;20468;-60
2024/02/23 12:47:40;;;;;;;2.20;1.20;;;13.10;83.00;;;;;;6180100;23;20008;-60
2024/02/23 12:50:31;;;;;;;7.20;1.20;;;13.10;82.90;;;;;;6181342;23;20009;-60
2024/02/23 12:53:39;;;;;;;1.95;0.88;;;13.10;82.80;;;;;;6184431;23;20518;-60
2024/02/23 12:56:25;;;;;;;4.53;1.80;;;13.10;82.80;;;;;;6184617;23;20012;-61
2024/02/23 12:59:11;;;;;;;2.78;1.48;;;13.10;82.80;;;;;;6184232;23;20373;-59
2024/02/23 13:01:57;;;;;;;4.25;1.67;;;13.10;82.70;;;;;;6183226;23;20005;-60
2024/02/23 13:04:48;;;;;;;2.78;1.23;;;13.10;82.50;;;;;;6181828;23;20009;-59
2024/02/23 13:07:34;;;;;;;3.03;1.33;;;13.10;82.50;;;;;;6182160;23;20016;-59
2024/02/23 13:10:20;;;;;;;3.97;1.60;;;13.10;82.50;;;;;;6181333;23;20009;-59
2024/02/23 13:13:06;;;;;;;1.67;1.02;;;13.10;82.40;;;;;;6178936;23;20068;-60
2024/02/23 13:15:54;;;;;;;1.45;0.90;;;13.10;82.50;;;;;;6182461;23;20430;-59
2024/02/23 13:18:40;;;;;;;2.00;1.20;;;13.00;82.60;;;;;;6183976;23;20005;-59
2024/02/23 13:21:26;;;;;;;2.83;1.15;;;13.00;82.60;;;;;;6183813;23;20086;-59
2024/02/23 13:24:12;;;;;;;1.95;1.17;;;13.00;82.80;;;;;;6182147;23;20131;-58
2024/02/23 13:26:57;;;;;;;1.58;1.00;;;13.00;82.70;;;;;;6180844;23;20024;-59
2024/02/23 13:29:43;;;;;;;1.80;1.30;;;13.00;82.60;;;;;;6182205;23;20013;-59
2024/02/23 13:32:29;;;;;;;2.25;1.23;;;13.00;82.50;;;;;;6181896;23;20001;-60
2024/02/23 13:35:16;;;;;;;3.75;1.42;;;13.00;82.40;;;;;;6181695;23;20005;-59
2024/02/23 13:38:05;;;;;;;4.22;1.30;;;13.00;82.30;;;;;;6180328;23;20009;-59
2024/02/23 13:40:51;;;;;;;1.90;1.05;;;12.90;82.40;;;;;;6185061;23;20009;-60
2024/02/23 13:43:38;;;;;;;2.83;1.35;;;12.90;82.30;;;;;;6179529;23;20062;-59
2024/02/23 13:46:24;;;;;;;2.90;1.20;;;12.80;82.40;;;;;;6179202;23;20032;-60
2024/02/23 13:49:12;;;;;;;2.88;1.63;;;12.80;82.60;;;;;;6181991;23;20041;-58
2024/02/23 13:51:58;;;;;;;1.30;0.82;;;12.80;82.60;;;;;;6181557;23;20009;-59
2024/02/23 13:54:44;;;;;;;1.65;1.05;;;12.80;82.60;;;;;;6181929;23;20426;-60
2024/02/23 13:57:30;;;;;;;2.65;1.17;;;12.80;82.50;;;;;;6182970;23;20426;-59
2024/02/23 14:00:18;;;;;;;2.47;1.02;;;12.80;82.60;;;;;;6183663;23;20056;-59
2024/02/23 14:03:04;;;;;;;2.40;1.45;;;12.80;82.50;;;;;;6179179;23;20025;-59
2024/02/23 14:05:51;;;;;;;2.47;1.20;;;12.80;82.50;;;;;;6180931;23;20036;-59
2024/02/23 14:08:38;;;;;;;2.65;1.35;;;12.80;82.50;;;;;;6181402;23;20012;-59
2024/02/23 14:11:24;;;;;;;2.05;1.05;;;12.80;82.50;;;;;;6180968;23;20388;-59
2024/02/23 14:14:10;;;;;;;1.73;0.95;;;12.80;82.60;;;;;;6182762;23;20009;-59
2024/02/23 14:16:56;;;;;;;2.40;1.00;;;12.70;82.70;;;;;;6182468;23;20005;-59
2024/02/23 14:19:42;;;;;;;2.42;1.13;;;12.70;83.30;;;;;;6179992;23;20005;-59
2024/02/23 14:22:28;;;;;;;3.10;1.38;;;12.60;83.00;;;;;;6181292;23;20484;-58
2024/02/23 14:25:14;;;;;;;2.90;1.65;;;12.60;83.00;;;;;;6181242;23;20032;-59
2024/02/23 14:28:00;;;;;;;3.08;1.25;;;12.50;82.80;;;;;;6177754;23;20005;-59